sensor_id;sensor_type;location;lat;lon;timestamp;P1;durP1;ratioP1;P2;durP2;ratioP2
60935;SDS011;46804;51.786;19.520;2022-11-21T00:02:36;40.67;;;18.23;;
60935;SDS011;46804;51.786;19.520;2022-11-21T00:06:37;42.75;;;18.05;;
60935;SDS011;46804;51.786;19.520;2022-11-21T00:10:38;29.45;;;16.40;;
60935;SDS011;46804;51.786;19.520;2022-11-21T00:14:38;39.70;;;16.20;;
60935;SDS011;46804;51.786;19.520;2022-11-21T00:18:39;40.60;;;19.08;;
60935;SDS011;46804;51.786;19.520;2022-11-21T00:22:40;32.65;;;18.15;;
60935;SDS011;46804;51.786;19.520;2022-11-21T00:26:41;30.20;;;15.82;;
60935;SDS011;46804;51.786;19.520;2022-11-21T00:30:41;45.72;;;19.02;;
60935;SDS011;46804;51.786;19.520;2022-11-21T00:34:42;45.78;;;20.42;;
60935;SDS011;46804;51.786;19.520;2022-11-21T00:38:42;33.72;;;16.92;;
60935;SDS011;46804;51.786;19.520;2022-11-21T00:42:43;37.03;;;15.73;;
60935;SDS011;46804;51.786;19.520;2022-11-21T00:46:44;32.60;;;15.43;;
60935;SDS011;46804;51.786;19.520;2022-11-21T00:50:46;18.52;;;10.52;;
60935;SDS011;46804;51.786;19.520;2022-11-21T00:54:48;36.13;;;16.25;;
60935;SDS011;46804;51.786;19.520;2022-11-21T00:58:48;37.08;;;16.98;;
60935;SDS011;46804;51.786;19.520;2022-11-21T01:02:49;55.63;;;19.92;;
60935;SDS011;46804;51.786;19.520;2022-11-21T01:06:49;40.38;;;18.52;;
60935;SDS011;46804;51.786;19.520;2022-11-21T01:10:50;40.13;;;20.13;;
60935;SDS011;46804;51.786;19.520;2022-11-21T01:14:50;47.05;;;22.40;;
60935;SDS011;46804;51.786;19.520;2022-11-21T01:18:52;32.70;;;19.65;;
60935;SDS011;46804;51.786;19.520;2022-11-21T01:22:53;35.50;;;15.13;;
60935;SDS011;46804;51.786;19.520;2022-11-21T01:26:53;46.63;;;19.10;;
60935;SDS011;46804;51.786;19.520;2022-11-21T01:30:54;37.33;;;17.08;;
60935;SDS011;46804;51.786;19.520;2022-11-21T01:34:55;26.75;;;14.32;;
60935;SDS011;46804;51.786;19.520;2022-11-21T01:38:56;24.92;;;13.40;;
60935;SDS011;46804;51.786;19.520;2022-11-21T01:43:03;28.13;;;15.05;;
60935;SDS011;46804;51.786;19.520;2022-11-21T01:47:11;38.08;;;15.45;;
60935;SDS011;46804;51.786;19.520;2022-11-21T01:51:25;31.42;;;14.77;;
60935;SDS011;46804;51.786;19.520;2022-11-21T01:55:30;28.73;;;15.55;;
60935;SDS011;46804;51.786;19.520;2022-11-21T01:59:43;31.08;;;11.90;;
60935;SDS011;46804;51.786;19.520;2022-11-21T02:04:03;25.50;;;12.57;;
60935;SDS011;46804;51.786;19.520;2022-11-21T02:08:07;27.15;;;13.70;;
60935;SDS011;46804;51.786;19.520;2022-11-21T02:12:14;30.50;;;11.07;;
60935;SDS011;46804;51.786;19.520;2022-11-21T02:16:22;24.95;;;12.55;;
60935;SDS011;46804;51.786;19.520;2022-11-21T02:20:25;22.60;;;12.70;;
60935;SDS011;46804;51.786;19.520;2022-11-21T02:24:38;23.88;;;12.45;;
60935;SDS011;46804;51.786;19.520;2022-11-21T02:28:45;25.13;;;12.63;;
60935;SDS011;46804;51.786;19.520;2022-11-21T02:32:45;25.02;;;13.18;;
60935;SDS011;46804;51.786;19.520;2022-11-21T02:36:46;32.67;;;11.88;;
60935;SDS011;46804;51.786;19.520;2022-11-21T02:40:48;28.52;;;11.63;;
60935;SDS011;46804;51.786;19.520;2022-11-21T02:44:55;24.35;;;11.02;;
60935;SDS011;46804;51.786;19.520;2022-11-21T02:49:02;19.42;;;10.10;;
60935;SDS011;46804;51.786;19.520;2022-11-21T02:53:08;21.98;;;10.30;;
60935;SDS011;46804;51.786;19.520;2022-11-21T02:57:10;24.08;;;11.45;;
60935;SDS011;46804;51.786;19.520;2022-11-21T03:01:11;25.98;;;11.43;;
60935;SDS011;46804;51.786;19.520;2022-11-21T03:05:12;31.13;;;9.68;;
60935;SDS011;46804;51.786;19.520;2022-11-21T03:09:14;32.88;;;13.07;;
60935;SDS011;46804;51.786;19.520;2022-11-21T03:13:15;33.40;;;13.15;;
60935;SDS011;46804;51.786;19.520;2022-11-21T03:17:16;24.48;;;11.30;;
60935;SDS011;46804;51.786;19.520;2022-11-21T03:21:16;27.05;;;11.93;;
60935;SDS011;46804;51.786;19.520;2022-11-21T03:25:17;15.20;;;10.73;;
60935;SDS011;46804;51.786;19.520;2022-11-21T03:29:19;29.95;;;14.65;;
60935;SDS011;46804;51.786;19.520;2022-11-21T03:33:19;27.90;;;12.52;;
60935;SDS011;46804;51.786;19.520;2022-11-21T03:37:20;27.17;;;15.68;;
60935;SDS011;46804;51.786;19.520;2022-11-21T03:41:20;27.27;;;14.25;;
60935;SDS011;46804;51.786;19.520;2022-11-21T03:45:30;33.53;;;14.38;;
60935;SDS011;46804;51.786;19.520;2022-11-21T03:49:31;24.85;;;13.85;;
60935;SDS011;46804;51.786;19.520;2022-11-21T03:53:31;17.45;;;10.68;;
60935;SDS011;46804;51.786;19.520;2022-11-21T03:57:32;22.13;;;9.90;;
60935;SDS011;46804;51.786;19.520;2022-11-21T04:01:32;19.00;;;11.05;;
60935;SDS011;46804;51.786;19.520;2022-11-21T04:05:33;27.42;;;12.23;;
60935;SDS011;46804;51.786;19.520;2022-11-21T04:09:34;26.13;;;13.98;;
60935;SDS011;46804;51.786;19.520;2022-11-21T04:13:34;25.98;;;10.35;;
60935;SDS011;46804;51.786;19.520;2022-11-21T04:17:35;21.58;;;11.00;;
60935;SDS011;46804;51.786;19.520;2022-11-21T04:21:38;33.20;;;15.95;;
60935;SDS011;46804;51.786;19.520;2022-11-21T04:25:39;28.05;;;15.43;;
60935;SDS011;46804;51.786;19.520;2022-11-21T04:29:40;24.40;;;11.43;;
60935;SDS011;46804;51.786;19.520;2022-11-21T04:33:40;21.27;;;9.80;;
60935;SDS011;46804;51.786;19.520;2022-11-21T04:37:41;21.02;;;10.40;;
60935;SDS011;46804;51.786;19.520;2022-11-21T04:41:41;19.88;;;11.43;;
60935;SDS011;46804;51.786;19.520;2022-11-21T04:45:42;24.40;;;12.25;;
60935;SDS011;46804;51.786;19.520;2022-11-21T04:49:43;39.80;;;19.73;;
60935;SDS011;46804;51.786;19.520;2022-11-21T04:53:44;57.88;;;31.45;;
60935;SDS011;46804;51.786;19.520;2022-11-21T04:57:44;24.10;;;12.38;;
60935;SDS011;46804;51.786;19.520;2022-11-21T05:01:46;19.20;;;10.05;;
60935;SDS011;46804;51.786;19.520;2022-11-21T05:05:46;24.75;;;11.38;;
60935;SDS011;46804;51.786;19.520;2022-11-21T05:09:47;21.65;;;11.65;;
60935;SDS011;46804;51.786;19.520;2022-11-21T05:13:48;24.15;;;14.30;;
60935;SDS011;46804;51.786;19.520;2022-11-21T05:17:49;22.30;;;11.85;;
60935;SDS011;46804;51.786;19.520;2022-11-21T05:21:49;20.77;;;10.48;;
60935;SDS011;46804;51.786;19.520;2022-11-21T05:25:50;18.50;;;10.68;;
60935;SDS011;46804;51.786;19.520;2022-11-21T05:29:50;19.67;;;11.63;;
60935;SDS011;46804;51.786;19.520;2022-11-21T05:33:51;23.60;;;11.63;;
60935;SDS011;46804;51.786;19.520;2022-11-21T05:37:55;34.38;;;16.70;;
60935;SDS011;46804;51.786;19.520;2022-11-21T05:41:56;16.27;;;9.27;;
60935;SDS011;46804;51.786;19.520;2022-11-21T05:45:57;26.45;;;12.25;;
60935;SDS011;46804;51.786;19.520;2022-11-21T05:49:57;32.30;;;13.55;;
60935;SDS011;46804;51.786;19.520;2022-11-21T05:53:58;31.58;;;13.82;;
60935;SDS011;46804;51.786;19.520;2022-11-21T05:57:59;32.90;;;15.05;;
60935;SDS011;46804;51.786;19.520;2022-11-21T06:02:00;25.52;;;12.77;;
60935;SDS011;46804;51.786;19.520;2022-11-21T06:06:19;33.13;;;15.27;;
60935;SDS011;46804;51.786;19.520;2022-11-21T06:10:20;24.80;;;14.93;;
60935;SDS011;46804;51.786;19.520;2022-11-21T06:14:20;32.05;;;12.05;;
60935;SDS011;46804;51.786;19.520;2022-11-21T06:18:21;28.38;;;13.25;;
60935;SDS011;46804;51.786;19.520;2022-11-21T06:22:22;37.08;;;17.10;;
60935;SDS011;46804;51.786;19.520;2022-11-21T06:26:23;44.38;;;19.85;;
60935;SDS011;46804;51.786;19.520;2022-11-21T06:30:25;33.25;;;15.40;;
60935;SDS011;46804;51.786;19.520;2022-11-21T06:34:25;23.38;;;12.38;;
60935;SDS011;46804;51.786;19.520;2022-11-21T06:38:26;28.55;;;14.50;;
60935;SDS011;46804;51.786;19.520;2022-11-21T06:42:27;26.67;;;13.13;;
60935;SDS011;46804;51.786;19.520;2022-11-21T06:46:27;24.80;;;14.15;;
60935;SDS011;46804;51.786;19.520;2022-11-21T06:50:29;29.23;;;13.52;;
60935;SDS011;46804;51.786;19.520;2022-11-21T06:54:33;31.60;;;13.43;;
60935;SDS011;46804;51.786;19.520;2022-11-21T06:58:33;32.15;;;15.45;;
60935;SDS011;46804;51.786;19.520;2022-11-21T07:02:34;28.48;;;15.23;;
60935;SDS011;46804;51.786;19.520;2022-11-21T07:06:34;48.25;;;20.20;;
60935;SDS011;46804;51.786;19.520;2022-11-21T07:10:35;33.22;;;15.38;;
60935;SDS011;46804;51.786;19.520;2022-11-21T07:14:36;25.35;;;15.10;;
60935;SDS011;46804;51.786;19.520;2022-11-21T07:18:36;36.05;;;17.23;;
60935;SDS011;46804;51.786;19.520;2022-11-21T07:22:37;30.67;;;14.88;;
60935;SDS011;46804;51.786;19.520;2022-11-21T07:26:38;24.42;;;12.82;;
60935;SDS011;46804;51.786;19.520;2022-11-21T07:30:38;24.65;;;12.30;;
60935;SDS011;46804;51.786;19.520;2022-11-21T07:34:39;35.17;;;15.30;;
60935;SDS011;46804;51.786;19.520;2022-11-21T07:38:39;28.25;;;14.13;;
60935;SDS011;46804;51.786;19.520;2022-11-21T07:42:40;30.42;;;13.50;;
60935;SDS011;46804;51.786;19.520;2022-11-21T07:46:41;31.33;;;13.30;;
60935;SDS011;46804;51.786;19.520;2022-11-21T07:50:41;31.58;;;11.25;;
60935;SDS011;46804;51.786;19.520;2022-11-21T07:54:42;22.08;;;11.23;;
60935;SDS011;46804;51.786;19.520;2022-11-21T07:58:43;23.00;;;12.95;;
60935;SDS011;46804;51.786;19.520;2022-11-21T08:02:43;31.65;;;13.45;;
60935;SDS011;46804;51.786;19.520;2022-11-21T08:06:44;30.23;;;13.57;;
60935;SDS011;46804;51.786;19.520;2022-11-21T08:10:45;31.67;;;16.50;;
60935;SDS011;46804;51.786;19.520;2022-11-21T08:14:46;29.60;;;16.88;;
60935;SDS011;46804;51.786;19.520;2022-11-21T08:18:46;30.90;;;13.50;;
60935;SDS011;46804;51.786;19.520;2022-11-21T08:22:48;57.83;;;25.02;;
60935;SDS011;46804;51.786;19.520;2022-11-21T08:26:49;37.38;;;15.70;;
60935;SDS011;46804;51.786;19.520;2022-11-21T08:30:50;25.85;;;13.77;;
60935;SDS011;46804;51.786;19.520;2022-11-21T08:34:51;35.08;;;18.27;;
60935;SDS011;46804;51.786;19.520;2022-11-21T08:38:51;31.55;;;13.93;;
60935;SDS011;46804;51.786;19.520;2022-11-21T08:43:10;32.08;;;17.27;;
60935;SDS011;46804;51.786;19.520;2022-11-21T08:47:10;28.17;;;14.32;;
60935;SDS011;46804;51.786;19.520;2022-11-21T08:51:11;31.05;;;14.75;;
60935;SDS011;46804;51.786;19.520;2022-11-21T08:55:11;38.05;;;19.20;;
60935;SDS011;46804;51.786;19.520;2022-11-21T08:59:12;41.53;;;20.15;;
60935;SDS011;46804;51.786;19.520;2022-11-21T09:03:13;41.30;;;16.77;;
60935;SDS011;46804;51.786;19.520;2022-11-21T09:07:13;35.00;;;16.08;;
60935;SDS011;46804;51.786;19.520;2022-11-21T09:11:14;35.17;;;17.90;;
60935;SDS011;46804;51.786;19.520;2022-11-21T09:15:14;36.92;;;17.52;;
60935;SDS011;46804;51.786;19.520;2022-11-21T09:19:35;41.00;;;17.40;;
60935;SDS011;46804;51.786;19.520;2022-11-21T09:23:35;48.45;;;18.30;;
60935;SDS011;46804;51.786;19.520;2022-11-21T09:27:36;31.50;;;16.10;;
60935;SDS011;46804;51.786;19.520;2022-11-21T09:31:52;30.40;;;15.73;;
60935;SDS011;46804;51.786;19.520;2022-11-21T09:35:53;41.15;;;20.65;;
60935;SDS011;46804;51.786;19.520;2022-11-21T09:39:54;40.17;;;18.25;;
60935;SDS011;46804;51.786;19.520;2022-11-21T09:44:14;31.92;;;15.88;;
60935;SDS011;46804;51.786;19.520;2022-11-21T09:53:04;41.00;;;21.30;;
60935;SDS011;46804;51.786;19.520;2022-11-21T09:57:09;35.47;;;17.00;;
60935;SDS011;46804;51.786;19.520;2022-11-21T10:01:14;42.28;;;18.05;;
60935;SDS011;46804;51.786;19.520;2022-11-21T10:05:16;36.17;;;17.27;;
60935;SDS011;46804;51.786;19.520;2022-11-21T10:14:10;31.42;;;16.00;;
60935;SDS011;46804;51.786;19.520;2022-11-21T10:18:28;44.15;;;18.70;;
60935;SDS011;46804;51.786;19.520;2022-11-21T10:22:59;40.63;;;16.88;;
60935;SDS011;46804;51.786;19.520;2022-11-21T10:27:14;39.78;;;19.45;;
60935;SDS011;46804;51.786;19.520;2022-11-21T10:31:18;35.47;;;15.82;;
60935;SDS011;46804;51.786;19.520;2022-11-21T10:35:21;39.35;;;19.65;;
60935;SDS011;46804;51.786;19.520;2022-11-21T10:39:43;35.92;;;18.42;;
60935;SDS011;46804;51.786;19.520;2022-11-21T10:43:50;44.92;;;19.23;;
60935;SDS011;46804;51.786;19.520;2022-11-21T10:48:11;41.92;;;19.60;;
60935;SDS011;46804;51.786;19.520;2022-11-21T10:52:15;40.63;;;18.75;;
60935;SDS011;46804;51.786;19.520;2022-11-21T10:56:23;35.92;;;14.82;;
60935;SDS011;46804;51.786;19.520;2022-11-21T11:00:26;48.05;;;24.05;;
60935;SDS011;46804;51.786;19.520;2022-11-21T11:04:28;32.00;;;16.15;;
60935;SDS011;46804;51.786;19.520;2022-11-21T11:08:29;48.53;;;23.65;;
60935;SDS011;46804;51.786;19.520;2022-11-21T11:12:50;54.60;;;24.92;;
60935;SDS011;46804;51.786;19.520;2022-11-21T11:17:29;40.15;;;21.20;;
60935;SDS011;46804;51.786;19.520;2022-11-21T11:25:44;51.65;;;23.90;;
60935;SDS011;46804;51.786;19.520;2022-11-21T11:29:50;41.28;;;20.83;;
60935;SDS011;46804;51.786;19.520;2022-11-21T11:33:51;47.35;;;21.98;;
60935;SDS011;46804;51.786;19.520;2022-11-21T11:37:58;48.22;;;23.83;;
60935;SDS011;46804;51.786;19.520;2022-11-21T11:42:15;46.53;;;21.95;;
60935;SDS011;46804;51.786;19.520;2022-11-21T11:46:49;55.47;;;25.27;;
60935;SDS011;46804;51.786;19.520;2022-11-21T11:51:20;40.10;;;20.40;;
60935;SDS011;46804;51.786;19.520;2022-11-21T11:56:11;55.53;;;22.48;;
60935;SDS011;46804;51.786;19.520;2022-11-21T12:00:38;42.85;;;20.77;;
60935;SDS011;46804;51.786;19.520;2022-11-21T12:04:19;54.80;;;21.70;;
60935;SDS011;46804;51.786;19.520;2022-11-21T12:12:49;50.00;;;23.60;;
60935;SDS011;46804;51.786;19.520;2022-11-21T12:16:54;53.42;;;25.33;;
60935;SDS011;46804;51.786;19.520;2022-11-21T12:21:03;61.83;;;24.35;;
60935;SDS011;46804;51.786;19.520;2022-11-21T12:25:09;47.67;;;23.20;;
60935;SDS011;46804;51.786;19.520;2022-11-21T12:33:38;54.33;;;24.27;;
60935;SDS011;46804;51.786;19.520;2022-11-21T12:37:58;54.58;;;25.55;;
60935;SDS011;46804;51.786;19.520;2022-11-21T12:42:25;48.85;;;23.45;;
60935;SDS011;46804;51.786;19.520;2022-11-21T12:46:52;48.85;;;22.05;;
60935;SDS011;46804;51.786;19.520;2022-11-21T12:51:06;45.13;;;22.80;;
60935;SDS011;46804;51.786;19.520;2022-11-21T12:55:35;53.58;;;22.73;;
60935;SDS011;46804;51.786;19.520;2022-11-21T13:03:56;50.53;;;20.92;;
60935;SDS011;46804;51.786;19.520;2022-11-21T13:08:02;51.05;;;24.75;;
60935;SDS011;46804;51.786;19.520;2022-11-21T13:12:14;46.50;;;21.92;;
60935;SDS011;46804;51.786;19.520;2022-11-21T13:16:21;40.47;;;20.85;;
60935;SDS011;46804;51.786;19.520;2022-11-21T13:20:39;48.20;;;21.90;;
60935;SDS011;46804;51.786;19.520;2022-11-21T13:28:47;54.28;;;24.55;;
60935;SDS011;46804;51.786;19.520;2022-11-21T13:32:48;49.95;;;22.00;;
60935;SDS011;46804;51.786;19.520;2022-11-21T13:36:49;56.78;;;24.02;;
60935;SDS011;46804;51.786;19.520;2022-11-21T13:40:50;54.65;;;23.80;;
60935;SDS011;46804;51.786;19.520;2022-11-21T13:49:56;55.30;;;24.88;;
60935;SDS011;46804;51.786;19.520;2022-11-21T14:02:43;46.72;;;22.40;;
60935;SDS011;46804;51.786;19.520;2022-11-21T14:07:15;49.40;;;24.10;;
60935;SDS011;46804;51.786;19.520;2022-11-21T14:20:17;44.70;;;22.83;;
60935;SDS011;46804;51.786;19.520;2022-11-21T14:24:22;57.13;;;22.00;;
60935;SDS011;46804;51.786;19.520;2022-11-21T14:28:24;49.85;;;22.85;;
60935;SDS011;46804;51.786;19.520;2022-11-21T14:32:30;49.00;;;23.02;;
60935;SDS011;46804;51.786;19.520;2022-11-21T14:36:31;44.92;;;20.40;;
60935;SDS011;46804;51.786;19.520;2022-11-21T14:40:32;57.63;;;23.15;;
60935;SDS011;46804;51.786;19.520;2022-11-21T14:44:32;59.97;;;23.98;;
60935;SDS011;46804;51.786;19.520;2022-11-21T14:48:33;51.90;;;23.42;;
60935;SDS011;46804;51.786;19.520;2022-11-21T14:52:34;58.67;;;30.30;;
60935;SDS011;46804;51.786;19.520;2022-11-21T14:56:35;46.97;;;20.67;;
60935;SDS011;46804;51.786;19.520;2022-11-21T15:00:35;53.63;;;22.95;;
60935;SDS011;46804;51.786;19.520;2022-11-21T15:04:36;66.85;;;27.90;;
60935;SDS011;46804;51.786;19.520;2022-11-21T15:08:36;62.20;;;23.83;;
60935;SDS011;46804;51.786;19.520;2022-11-21T15:12:45;57.88;;;22.40;;
60935;SDS011;46804;51.786;19.520;2022-11-21T15:16:49;50.75;;;24.63;;
60935;SDS011;46804;51.786;19.520;2022-11-21T15:20:52;64.03;;;22.90;;
60935;SDS011;46804;51.786;19.520;2022-11-21T15:25:04;54.35;;;23.45;;
60935;SDS011;46804;51.786;19.520;2022-11-21T15:29:18;52.50;;;25.43;;
60935;SDS011;46804;51.786;19.520;2022-11-21T15:33:20;75.55;;;33.78;;
60935;SDS011;46804;51.786;19.520;2022-11-21T15:37:20;75.43;;;30.85;;
60935;SDS011;46804;51.786;19.520;2022-11-21T15:41:23;90.55;;;33.15;;
60935;SDS011;46804;51.786;19.520;2022-11-21T15:45:24;57.78;;;26.60;;
60935;SDS011;46804;51.786;19.520;2022-11-21T15:49:25;81.47;;;33.40;;
60935;SDS011;46804;51.786;19.520;2022-11-21T15:53:26;85.78;;;30.17;;
60935;SDS011;46804;51.786;19.520;2022-11-21T15:57:27;68.47;;;28.92;;
60935;SDS011;46804;51.786;19.520;2022-11-21T16:01:28;70.13;;;31.25;;
60935;SDS011;46804;51.786;19.520;2022-11-21T16:05:29;106.15;;;43.20;;
60935;SDS011;46804;51.786;19.520;2022-11-21T16:09:30;504.98;;;172.80;;
60935;SDS011;46804;51.786;19.520;2022-11-21T16:13:30;194.13;;;54.58;;
60935;SDS011;46804;51.786;19.520;2022-11-21T16:17:31;139.00;;;42.40;;
60935;SDS011;46804;51.786;19.520;2022-11-21T16:21:32;99.88;;;36.10;;
60935;SDS011;46804;51.786;19.520;2022-11-21T16:25:32;100.38;;;35.83;;
60935;SDS011;46804;51.786;19.520;2022-11-21T16:29:33;72.15;;;29.98;;
60935;SDS011;46804;51.786;19.520;2022-11-21T16:33:34;77.82;;;31.42;;
60935;SDS011;46804;51.786;19.520;2022-11-21T16:37:38;87.03;;;34.13;;
60935;SDS011;46804;51.786;19.520;2022-11-21T16:41:39;80.20;;;35.25;;
60935;SDS011;46804;51.786;19.520;2022-11-21T16:45:40;72.13;;;30.80;;
60935;SDS011;46804;51.786;19.520;2022-11-21T16:49:40;58.97;;;28.50;;
60935;SDS011;46804;51.786;19.520;2022-11-21T16:53:47;56.72;;;25.88;;
60935;SDS011;46804;51.786;19.520;2022-11-21T16:57:48;67.28;;;31.48;;
60935;SDS011;46804;51.786;19.520;2022-11-21T17:01:49;57.65;;;28.65;;
60935;SDS011;46804;51.786;19.520;2022-11-21T17:05:57;84.35;;;37.90;;
60935;SDS011;46804;51.786;19.520;2022-11-21T17:09:58;94.90;;;41.03;;
60935;SDS011;46804;51.786;19.520;2022-11-21T17:14:00;84.95;;;37.22;;
60935;SDS011;46804;51.786;19.520;2022-11-21T17:18:02;85.70;;;35.28;;
60935;SDS011;46804;51.786;19.520;2022-11-21T17:22:03;115.40;;;58.70;;
60935;SDS011;46804;51.786;19.520;2022-11-21T17:26:04;241.75;;;70.22;;
60935;SDS011;46804;51.786;19.520;2022-11-21T17:30:06;133.77;;;50.83;;
60935;SDS011;46804;51.786;19.520;2022-11-21T17:34:07;69.78;;;31.17;;
60935;SDS011;46804;51.786;19.520;2022-11-21T17:38:08;71.68;;;32.60;;
60935;SDS011;46804;51.786;19.520;2022-11-21T17:42:08;76.30;;;34.85;;
60935;SDS011;46804;51.786;19.520;2022-11-21T17:46:12;113.72;;;44.97;;
60935;SDS011;46804;51.786;19.520;2022-11-21T17:50:16;90.57;;;39.40;;
60935;SDS011;46804;51.786;19.520;2022-11-21T17:54:16;111.93;;;43.08;;
60935;SDS011;46804;51.786;19.520;2022-11-21T17:58:18;73.80;;;32.78;;
60935;SDS011;46804;51.786;19.520;2022-11-21T18:02:18;70.40;;;32.50;;
60935;SDS011;46804;51.786;19.520;2022-11-21T18:06:21;73.38;;;33.45;;
60935;SDS011;46804;51.786;19.520;2022-11-21T18:10:22;61.83;;;28.25;;
60935;SDS011;46804;51.786;19.520;2022-11-21T18:14:23;56.42;;;27.27;;
60935;SDS011;46804;51.786;19.520;2022-11-21T18:18:23;62.50;;;29.80;;
60935;SDS011;46804;51.786;19.520;2022-11-21T18:22:24;64.20;;;31.15;;
60935;SDS011;46804;51.786;19.520;2022-11-21T18:26:26;68.97;;;34.95;;
60935;SDS011;46804;51.786;19.520;2022-11-21T18:30:29;71.45;;;34.47;;
60935;SDS011;46804;51.786;19.520;2022-11-21T18:34:30;102.60;;;36.08;;
60935;SDS011;46804;51.786;19.520;2022-11-21T18:38:31;89.82;;;38.33;;
60935;SDS011;46804;51.786;19.520;2022-11-21T18:42:33;89.78;;;37.92;;
60935;SDS011;46804;51.786;19.520;2022-11-21T18:46:35;83.00;;;33.97;;
60935;SDS011;46804;51.786;19.520;2022-11-21T18:50:36;90.22;;;38.55;;
60935;SDS011;46804;51.786;19.520;2022-11-21T18:54:36;128.38;;;49.72;;
60935;SDS011;46804;51.786;19.520;2022-11-21T18:58:38;91.07;;;39.30;;
60935;SDS011;46804;51.786;19.520;2022-11-21T19:02:39;66.25;;;32.55;;
60935;SDS011;46804;51.786;19.520;2022-11-21T19:06:40;71.32;;;30.45;;
60935;SDS011;46804;51.786;19.520;2022-11-21T19:10:41;68.25;;;28.02;;
60935;SDS011;46804;51.786;19.520;2022-11-21T19:14:41;54.28;;;25.02;;
60935;SDS011;46804;51.786;19.520;2022-11-21T19:18:42;63.25;;;25.33;;
60935;SDS011;46804;51.786;19.520;2022-11-21T19:22:42;69.35;;;28.65;;
60935;SDS011;46804;51.786;19.520;2022-11-21T19:26:43;64.97;;;28.25;;
60935;SDS011;46804;51.786;19.520;2022-11-21T19:30:43;54.58;;;24.77;;
60935;SDS011;46804;51.786;19.520;2022-11-21T19:34:44;61.40;;;26.35;;
60935;SDS011;46804;51.786;19.520;2022-11-21T19:38:45;66.40;;;28.95;;
60935;SDS011;46804;51.786;19.520;2022-11-21T19:42:46;66.38;;;27.45;;
60935;SDS011;46804;51.786;19.520;2022-11-21T19:46:47;61.08;;;26.27;;
60935;SDS011;46804;51.786;19.520;2022-11-21T19:50:58;63.00;;;24.85;;
60935;SDS011;46804;51.786;19.520;2022-11-21T19:55:01;54.45;;;23.85;;
60935;SDS011;46804;51.786;19.520;2022-11-21T19:59:02;67.18;;;24.23;;
60935;SDS011;46804;51.786;19.520;2022-11-21T20:03:03;63.42;;;26.52;;
60935;SDS011;46804;51.786;19.520;2022-11-21T20:07:04;55.45;;;24.30;;
60935;SDS011;46804;51.786;19.520;2022-11-21T20:11:10;50.65;;;21.60;;
60935;SDS011;46804;51.786;19.520;2022-11-21T20:15:12;70.55;;;26.73;;
60935;SDS011;46804;51.786;19.520;2022-11-21T20:19:14;58.65;;;23.00;;
60935;SDS011;46804;51.786;19.520;2022-11-21T20:23:16;60.93;;;22.67;;
60935;SDS011;46804;51.786;19.520;2022-11-21T20:27:17;54.03;;;21.30;;
60935;SDS011;46804;51.786;19.520;2022-11-21T20:31:27;50.67;;;20.83;;
60935;SDS011;46804;51.786;19.520;2022-11-21T20:35:29;44.50;;;19.35;;
60935;SDS011;46804;51.786;19.520;2022-11-21T20:39:30;44.78;;;18.45;;
60935;SDS011;46804;51.786;19.520;2022-11-21T20:43:31;47.65;;;19.60;;
60935;SDS011;46804;51.786;19.520;2022-11-21T20:47:34;44.50;;;17.95;;
60935;SDS011;46804;51.786;19.520;2022-11-21T20:51:35;40.00;;;16.83;;
60935;SDS011;46804;51.786;19.520;2022-11-21T20:55:36;40.13;;;16.15;;
60935;SDS011;46804;51.786;19.520;2022-11-21T20:59:37;38.13;;;16.50;;
60935;SDS011;46804;51.786;19.520;2022-11-21T21:03:38;39.67;;;16.02;;
60935;SDS011;46804;51.786;19.520;2022-11-21T21:07:38;40.80;;;17.95;;
60935;SDS011;46804;51.786;19.520;2022-11-21T21:11:39;41.20;;;16.75;;
60935;SDS011;46804;51.786;19.520;2022-11-21T21:15:39;43.42;;;17.65;;
60935;SDS011;46804;51.786;19.520;2022-11-21T21:19:40;38.80;;;17.70;;
60935;SDS011;46804;51.786;19.520;2022-11-21T21:23:41;47.33;;;18.90;;
60935;SDS011;46804;51.786;19.520;2022-11-21T21:27:46;45.53;;;19.70;;
60935;SDS011;46804;51.786;19.520;2022-11-21T21:31:49;44.53;;;18.40;;
60935;SDS011;46804;51.786;19.520;2022-11-21T21:35:49;43.90;;;18.60;;
60935;SDS011;46804;51.786;19.520;2022-11-21T21:39:50;53.00;;;20.13;;
60935;SDS011;46804;51.786;19.520;2022-11-21T21:43:51;46.70;;;19.20;;
60935;SDS011;46804;51.786;19.520;2022-11-21T21:47:53;46.92;;;18.40;;
60935;SDS011;46804;51.786;19.520;2022-11-21T21:51:54;43.45;;;16.90;;
60935;SDS011;46804;51.786;19.520;2022-11-21T21:55:57;48.10;;;17.83;;
60935;SDS011;46804;51.786;19.520;2022-11-21T21:59:59;48.38;;;17.17;;
60935;SDS011;46804;51.786;19.520;2022-11-21T22:04:00;44.03;;;17.75;;
60935;SDS011;46804;51.786;19.520;2022-11-21T22:08:02;55.23;;;19.87;;
60935;SDS011;46804;51.786;19.520;2022-11-21T22:12:02;50.30;;;18.88;;
60935;SDS011;46804;51.786;19.520;2022-11-21T22:16:04;46.00;;;19.45;;
60935;SDS011;46804;51.786;19.520;2022-11-21T22:20:05;57.72;;;19.67;;
60935;SDS011;46804;51.786;19.520;2022-11-21T22:24:10;47.00;;;19.60;;
60935;SDS011;46804;51.786;19.520;2022-11-21T22:28:14;44.85;;;19.05;;
60935;SDS011;46804;51.786;19.520;2022-11-21T22:32:15;52.35;;;19.02;;
60935;SDS011;46804;51.786;19.520;2022-11-21T22:36:16;51.50;;;20.55;;
60935;SDS011;46804;51.786;19.520;2022-11-21T22:40:18;52.78;;;19.80;;
60935;SDS011;46804;51.786;19.520;2022-11-21T22:44:18;47.45;;;19.90;;
60935;SDS011;46804;51.786;19.520;2022-11-21T22:48:19;51.92;;;19.83;;
60935;SDS011;46804;51.786;19.520;2022-11-21T22:52:19;49.22;;;19.00;;
60935;SDS011;46804;51.786;19.520;2022-11-21T22:56:21;64.30;;;19.85;;
60935;SDS011;46804;51.786;19.520;2022-11-21T23:00:23;62.87;;;21.87;;
60935;SDS011;46804;51.786;19.520;2022-11-21T23:04:23;52.92;;;19.50;;
60935;SDS011;46804;51.786;19.520;2022-11-21T23:08:24;59.65;;;21.52;;
60935;SDS011;46804;51.786;19.520;2022-11-21T23:12:24;55.05;;;21.35;;
60935;SDS011;46804;51.786;19.520;2022-11-21T23:16:26;72.47;;;25.27;;
60935;SDS011;46804;51.786;19.520;2022-11-21T23:20:28;61.90;;;22.17;;
60935;SDS011;46804;51.786;19.520;2022-11-21T23:24:28;65.50;;;21.30;;
60935;SDS011;46804;51.786;19.520;2022-11-21T23:28:29;56.05;;;20.98;;
60935;SDS011;46804;51.786;19.520;2022-11-21T23:32:29;66.47;;;23.33;;
60935;SDS011;46804;51.786;19.520;2022-11-21T23:36:30;53.53;;;20.88;;
60935;SDS011;46804;51.786;19.520;2022-11-21T23:40:31;44.05;;;19.23;;
60935;SDS011;46804;51.786;19.520;2022-11-21T23:44:32;55.83;;;21.10;;
60935;SDS011;46804;51.786;19.520;2022-11-21T23:48:32;63.42;;;23.00;;
60935;SDS011;46804;51.786;19.520;2022-11-21T23:52:33;62.63;;;20.08;;
60935;SDS011;46804;51.786;19.520;2022-11-21T23:56:33;60.55;;;20.48;;
